sensor_id;sensor_type;location;lat;lon;timestamp;pressure;altitude;pressure_sealevel;temperature;humidity
79138;BME280;68544;45.566;10.238;2023-08-12T00:00:46;100430.75;;;26.64;50.96
79138;BME280;68544;45.566;10.238;2023-08-12T00:03:12;100432.66;;;26.74;50.63
79138;BME280;68544;45.566;10.238;2023-08-12T00:05:37;100429.94;;;26.58;50.81
79138;BME280;68544;45.566;10.238;2023-08-12T00:08:05;100426.31;;;26.73;50.57
79138;BME280;68544;45.566;10.238;2023-08-12T00:10:30;100424.13;;;26.55;50.97
79138;BME280;68544;45.566;10.238;2023-08-12T00:12:56;100414.50;;;25.42;54.46
79138;BME280;68544;45.566;10.238;2023-08-12T00:15:21;100412.31;;;25.94;53.41
79138;BME280;68544;45.566;10.238;2023-08-12T00:17:46;100412.31;;;25.94;53.27
79138;BME280;68544;45.566;10.238;2023-08-12T00:20:12;100416.75;;;25.95;53.05
79138;BME280;68544;45.566;10.238;2023-08-12T00:22:37;100416.72;;;26.30;51.86
79138;BME280;68544;45.566;10.238;2023-08-12T00:25:04;100414.78;;;25.96;53.16
79138;BME280;68544;45.566;10.238;2023-08-12T00:27:29;100411.72;;;26.27;52.13
79138;BME280;68544;45.566;10.238;2023-08-12T00:29:55;100383.53;;;26.20;51.65
79138;BME280;68544;45.566;10.238;2023-08-12T00:32:20;100418.41;;;26.16;52.58
79138;BME280;68544;45.566;10.238;2023-08-12T00:34:45;100410.03;;;26.41;51.58
79138;BME280;68544;45.566;10.238;2023-08-12T00:37:11;100397.84;;;26.47;51.40
79138;BME280;68544;45.566;10.238;2023-08-12T00:39:36;100400.66;;;26.32;51.69
79138;BME280;68544;45.566;10.238;2023-08-12T00:42:01;100411.19;;;26.30;51.68
79138;BME280;68544;45.566;10.238;2023-08-12T00:44:27;100400.13;;;26.20;52.26
79138;BME280;68544;45.566;10.238;2023-08-12T00:46:52;100400.72;;;26.12;52.44
79138;BME280;68544;45.566;10.238;2023-08-12T00:49:18;100406.75;;;26.04;52.48
79138;BME280;68544;45.566;10.238;2023-08-12T00:51:43;100404.81;;;26.05;52.75
79138;BME280;68544;45.566;10.238;2023-08-12T00:54:16;100409.00;;;26.22;52.10
79138;BME280;68544;45.566;10.238;2023-08-12T00:56:42;100412.31;;;25.59;54.21
79138;BME280;68544;45.566;10.238;2023-08-12T00:59:08;100404.56;;;25.71;53.91
79138;BME280;68544;45.566;10.238;2023-08-12T01:01:35;100400.16;;;25.80;53.45
79138;BME280;68544;45.566;10.238;2023-08-12T01:04:01;100399.59;;;25.73;53.78
79138;BME280;68544;45.566;10.238;2023-08-12T01:06:26;100400.44;;;25.63;54.05
79138;BME280;68544;45.566;10.238;2023-08-12T01:08:52;100394.06;;;25.63;53.51
79138;BME280;68544;45.566;10.238;2023-08-12T01:11:34;100394.06;;;25.78;53.13
79138;BME280;68544;45.566;10.238;2023-08-12T01:14:23;100396.81;;;25.98;52.49
79138;BME280;68544;45.566;10.238;2023-08-12T01:16:57;100403.06;;;25.08;55.44
79138;BME280;68544;45.566;10.238;2023-08-12T01:19:33;100395.16;;;25.77;53.36
79138;BME280;68544;45.566;10.238;2023-08-12T01:22:00;100398.75;;;25.62;53.86
79138;BME280;68544;45.566;10.238;2023-08-12T01:24:27;100391.28;;;25.73;53.21
79138;BME280;68544;45.566;10.238;2023-08-12T01:26:57;100394.59;;;25.75;53.26
79138;BME280;68544;45.566;10.238;2023-08-12T01:29:23;100387.97;;;25.71;53.63
79138;BME280;68544;45.566;10.238;2023-08-12T01:31:58;100386.03;;;25.71;53.33
79138;BME280;68544;45.566;10.238;2023-08-12T01:34:45;100384.38;;;25.50;54.01
79138;BME280;68544;45.566;10.238;2023-08-12T01:37:14;100385.97;;;25.21;55.13
79138;BME280;68544;45.566;10.238;2023-08-12T01:39:43;100391.03;;;25.59;53.99
79138;BME280;68544;45.566;10.238;2023-08-12T01:42:10;100380.22;;;25.73;53.63
79138;BME280;68544;45.566;10.238;2023-08-12T01:44:36;100386.03;;;25.71;53.61
79138;BME280;68544;45.566;10.238;2023-08-12T01:47:01;100371.34;;;25.81;52.77
79138;BME280;68544;45.566;10.238;2023-08-12T01:49:27;100371.91;;;25.38;54.26
79138;BME280;68544;45.566;10.238;2023-08-12T01:51:53;100365.75;;;25.00;55.81
79138;BME280;68544;45.566;10.238;2023-08-12T01:54:18;100368.56;;;25.21;55.22
79138;BME280;68544;45.566;10.238;2023-08-12T01:56:43;100364.66;;;24.96;56.08
79138;BME280;68544;45.566;10.238;2023-08-12T01:59:09;100374.16;;;25.51;54.50
79138;BME280;68544;45.566;10.238;2023-08-12T02:01:34;100364.97;;;25.15;55.33
79138;BME280;68544;45.566;10.238;2023-08-12T02:03:59;100363.50;;;24.92;56.09
79138;BME280;68544;45.566;10.238;2023-08-12T02:06:25;100366.25;;;24.20;58.60
79138;BME280;68544;45.566;10.238;2023-08-12T02:08:50;100363.97;;;24.07;59.06
79138;BME280;68544;45.566;10.238;2023-08-12T02:11:16;100358.78;;;24.21;58.76
79138;BME280;68544;45.566;10.238;2023-08-12T02:13:41;100358.44;;;24.64;57.19
79138;BME280;68544;45.566;10.238;2023-08-12T02:16:06;100358.59;;;25.15;55.36
79138;BME280;68544;45.566;10.238;2023-08-12T02:18:32;100361.94;;;25.32;55.00
79138;BME280;68544;45.566;10.238;2023-08-12T02:20:57;100362.38;;;24.78;56.32
79138;BME280;68544;45.566;10.238;2023-08-12T02:23:22;100359.66;;;24.93;55.83
79138;BME280;68544;45.566;10.238;2023-08-12T02:25:48;100365.03;;;24.63;56.72
79138;BME280;68544;45.566;10.238;2023-08-12T02:28:13;100363.19;;;24.74;56.48
79138;BME280;68544;45.566;10.238;2023-08-12T02:30:38;100364.50;;;24.66;56.75
79138;BME280;68544;45.566;10.238;2023-08-12T02:33:04;100337.72;;;24.72;55.92
79138;BME280;68544;45.566;10.238;2023-08-12T02:35:29;100360.22;;;24.95;55.31
79138;BME280;68544;45.566;10.238;2023-08-12T02:37:54;100363.06;;;24.44;57.45
79138;BME280;68544;45.566;10.238;2023-08-12T02:40:20;100355.13;;;24.72;56.48
79138;BME280;68544;45.566;10.238;2023-08-12T02:42:45;100362.88;;;24.70;56.50
79138;BME280;68544;45.566;10.238;2023-08-12T02:45:10;100357.41;;;24.80;56.05
79138;BME280;68544;45.566;10.238;2023-08-12T02:47:35;100358.94;;;24.51;57.04
79138;BME280;68544;45.566;10.238;2023-08-12T02:50:01;100363.50;;;24.92;55.34
79138;BME280;68544;45.566;10.238;2023-08-12T02:52:27;100362.66;;;24.77;56.05
79138;BME280;68544;45.566;10.238;2023-08-12T02:54:52;100371.72;;;24.72;56.20
79138;BME280;68544;45.566;10.238;2023-08-12T02:57:18;100358.81;;;24.93;55.58
79138;BME280;68544;45.566;10.238;2023-08-12T02:59:43;100364.06;;;24.94;55.44
79138;BME280;68544;45.566;10.238;2023-08-12T03:02:08;100367.06;;;24.78;56.04
79138;BME280;68544;45.566;10.238;2023-08-12T03:04:34;100366.28;;;24.92;55.69
79138;BME280;68544;45.566;10.238;2023-08-12T03:06:59;100369.31;;;24.91;55.39
79138;BME280;68544;45.566;10.238;2023-08-12T03:09:24;100360.28;;;24.49;56.94
79138;BME280;68544;45.566;10.238;2023-08-12T03:11:50;100363.50;;;24.77;55.85
79138;BME280;68544;45.566;10.238;2023-08-12T03:14:15;100360.06;;;24.65;56.29
79138;BME280;68544;45.566;10.238;2023-08-12T03:16:40;100356.09;;;24.36;57.42
79138;BME280;68544;45.566;10.238;2023-08-12T03:19:05;100360.88;;;24.56;56.46
79138;BME280;68544;45.566;10.238;2023-08-12T03:21:31;100353.81;;;24.80;55.33
79138;BME280;68544;45.566;10.238;2023-08-12T03:23:56;100361.66;;;24.41;56.51
79138;BME280;68544;45.566;10.238;2023-08-12T03:26:21;100358.44;;;24.69;55.88
79138;BME280;68544;45.566;10.238;2023-08-12T03:28:46;100355.84;;;24.43;56.56
79138;BME280;68544;45.566;10.238;2023-08-12T03:31:12;100361.53;;;24.16;57.57
79138;BME280;68544;45.566;10.238;2023-08-12T03:33:37;100364.13;;;24.43;56.71
79138;BME280;68544;45.566;10.238;2023-08-12T03:36:03;100359.84;;;24.67;55.82
79138;BME280;68544;45.566;10.238;2023-08-12T03:38:28;100358.34;;;24.44;56.58
79138;BME280;68544;45.566;10.238;2023-08-12T03:40:54;100358.97;;;24.61;56.36
79138;BME280;68544;45.566;10.238;2023-08-12T03:43:20;100362.34;;;24.73;55.77
79138;BME280;68544;45.566;10.238;2023-08-12T03:45:45;100365.34;;;24.67;56.17
79138;BME280;68544;45.566;10.238;2023-08-12T03:48:11;100365.59;;;24.60;56.43
79138;BME280;68544;45.566;10.238;2023-08-12T03:50:37;100355.59;;;24.49;56.61
79138;BME280;68544;45.566;10.238;2023-08-12T03:53:02;100357.78;;;24.37;57.02
79138;BME280;68544;45.566;10.238;2023-08-12T03:55:30;100362.81;;;24.55;56.20
79138;BME280;68544;45.566;10.238;2023-08-12T03:57:55;100346.56;;;24.64;55.60
79138;BME280;68544;45.566;10.238;2023-08-12T04:00:20;100367.13;;;24.88;55.23
79138;BME280;68544;45.566;10.238;2023-08-12T04:02:46;100355.50;;;24.91;54.83
79138;BME280;68544;45.566;10.238;2023-08-12T04:05:11;100357.47;;;25.00;54.80
79138;BME280;68544;45.566;10.238;2023-08-12T04:07:36;100357.44;;;24.95;54.67
79138;BME280;68544;45.566;10.238;2023-08-12T04:10:02;100363.41;;;24.62;55.87
79138;BME280;68544;45.566;10.238;2023-08-12T04:12:27;100354.31;;;24.72;55.46
79138;BME280;68544;45.566;10.238;2023-08-12T04:14:52;100357.47;;;24.33;57.01
79138;BME280;68544;45.566;10.238;2023-08-12T04:17:18;100359.50;;;24.48;56.39
79138;BME280;68544;45.566;10.238;2023-08-12T04:19:43;100351.69;;;24.35;57.07
79138;BME280;68544;45.566;10.238;2023-08-12T04:22:08;100347.59;;;24.48;56.24
79138;BME280;68544;45.566;10.238;2023-08-12T04:24:34;100357.88;;;24.67;55.67
79138;BME280;68544;45.566;10.238;2023-08-12T04:26:59;100358.28;;;24.34;56.54
79138;BME280;68544;45.566;10.238;2023-08-12T04:29:24;100354.16;;;24.37;56.52
79138;BME280;68544;45.566;10.238;2023-08-12T04:31:50;100349.94;;;24.76;55.00
79138;BME280;68544;45.566;10.238;2023-08-12T04:34:15;100349.03;;;24.60;55.69
79138;BME280;68544;45.566;10.238;2023-08-12T04:36:40;100347.56;;;24.43;56.22
79138;BME280;68544;45.566;10.238;2023-08-12T04:39:06;100349.50;;;24.37;56.53
79138;BME280;68544;45.566;10.238;2023-08-12T04:41:31;100344.28;;;24.46;56.33
79138;BME280;68544;45.566;10.238;2023-08-12T04:43:58;100354.78;;;24.44;56.56
79138;BME280;68544;45.566;10.238;2023-08-12T04:46:23;100355.19;;;23.79;58.70
79138;BME280;68544;45.566;10.238;2023-08-12T04:48:49;100352.56;;;23.99;58.14
79138;BME280;68544;45.566;10.238;2023-08-12T04:51:14;100358.16;;;24.04;57.87
79138;BME280;68544;45.566;10.238;2023-08-12T04:53:39;100353.56;;;23.88;58.34
79138;BME280;68544;45.566;10.238;2023-08-12T04:56:05;100353.19;;;24.11;57.98
79138;BME280;68544;45.566;10.238;2023-08-12T04:58:30;100354.97;;;24.27;56.86
79138;BME280;68544;45.566;10.238;2023-08-12T05:00:55;100358.84;;;24.31;56.93
79138;BME280;68544;45.566;10.238;2023-08-12T05:03:22;100358.09;;;24.51;56.25
79138;BME280;68544;45.566;10.238;2023-08-12T05:05:50;100365.09;;;24.11;57.69
79138;BME280;68544;45.566;10.238;2023-08-12T05:08:16;100358.38;;;24.49;56.27
79138;BME280;68544;45.566;10.238;2023-08-12T05:10:41;100354.06;;;24.73;55.62
79138;BME280;68544;45.566;10.238;2023-08-12T05:13:06;100351.59;;;24.77;55.36
79138;BME280;68544;45.566;10.238;2023-08-12T05:15:32;100363.50;;;24.77;55.37
79138;BME280;68544;45.566;10.238;2023-08-12T05:17:57;100360.63;;;24.67;55.72
79138;BME280;68544;45.566;10.238;2023-08-12T05:20:22;100367.91;;;24.88;55.08
79138;BME280;68544;45.566;10.238;2023-08-12T05:22:48;100363.28;;;24.37;56.70
79138;BME280;68544;45.566;10.238;2023-08-12T05:25:13;100361.84;;;24.29;56.92
79138;BME280;68544;45.566;10.238;2023-08-12T05:27:39;100358.88;;;24.41;56.57
79138;BME280;68544;45.566;10.238;2023-08-12T05:30:04;100357.28;;;24.50;56.36
79138;BME280;68544;45.566;10.238;2023-08-12T05:32:29;100361.06;;;24.34;56.95
79138;BME280;68544;45.566;10.238;2023-08-12T05:34:55;100356.28;;;24.76;55.68
79138;BME280;68544;45.566;10.238;2023-08-12T05:37:20;100350.22;;;24.79;55.55
79138;BME280;68544;45.566;10.238;2023-08-12T05:39:45;100335.31;;;24.80;55.37
79138;BME280;68544;45.566;10.238;2023-08-12T05:42:11;100353.66;;;25.52;53.36
79138;BME280;68544;45.566;10.238;2023-08-12T05:44:36;100355.34;;;25.53;53.18
79138;BME280;68544;45.566;10.238;2023-08-12T05:47:01;100354.09;;;24.88;55.41
79138;BME280;68544;45.566;10.238;2023-08-12T05:49:27;100354.56;;;24.65;56.36
79138;BME280;68544;45.566;10.238;2023-08-12T05:51:52;100346.41;;;24.95;55.47
79138;BME280;68544;45.566;10.238;2023-08-12T05:54:17;100347.53;;;25.04;55.20
79138;BME280;68544;45.566;10.238;2023-08-12T05:56:43;100338.72;;;25.38;54.49
79138;BME280;68544;45.566;10.238;2023-08-12T05:59:08;100350.31;;;25.30;54.64
79138;BME280;68544;45.566;10.238;2023-08-12T06:01:33;100351.34;;;24.83;55.81
79138;BME280;68544;45.566;10.238;2023-08-12T06:03:59;100348.13;;;25.52;54.09
79138;BME280;68544;45.566;10.238;2023-08-12T06:06:24;100359.72;;;25.39;54.26
79138;BME280;68544;45.566;10.238;2023-08-12T06:08:49;100350.94;;;25.47;54.48
79138;BME280;68544;45.566;10.238;2023-08-12T06:11:15;100345.91;;;25.64;53.78
79138;BME280;68544;45.566;10.238;2023-08-12T06:13:40;100348.06;;;26.02;52.27
79138;BME280;68544;45.566;10.238;2023-08-12T06:16:06;100353.66;;;26.12;51.94
79138;BME280;68544;45.566;10.238;2023-08-12T06:18:31;100338.38;;;26.00;52.18
79138;BME280;68544;45.566;10.238;2023-08-12T06:20:56;100335.22;;;26.51;50.97
79138;BME280;68544;45.566;10.238;2023-08-12T06:23:22;100345.56;;;26.31;51.09
79138;BME280;68544;45.566;10.238;2023-08-12T06:25:47;100334.88;;;26.63;50.01
79138;BME280;68544;45.566;10.238;2023-08-12T06:28:12;100342.78;;;26.26;51.07
79138;BME280;68544;45.566;10.238;2023-08-12T06:30:38;100346.84;;;26.58;50.49
79138;BME280;68544;45.566;10.238;2023-08-12T06:33:03;100337.97;;;27.05;48.92
79138;BME280;68544;45.566;10.238;2023-08-12T06:35:29;100342.28;;;26.83;49.89
79138;BME280;68544;45.566;10.238;2023-08-12T06:37:54;100345.22;;;26.47;51.19
79138;BME280;68544;45.566;10.238;2023-08-12T06:40:20;100350.09;;;26.66;50.78
79138;BME280;68544;45.566;10.238;2023-08-12T06:42:45;100343.78;;;26.60;50.59
79138;BME280;68544;45.566;10.238;2023-08-12T06:45:10;100332.19;;;27.02;49.42
79138;BME280;68544;45.566;10.238;2023-08-12T06:47:36;100339.19;;;27.38;48.62
79138;BME280;68544;45.566;10.238;2023-08-12T06:50:02;100343.13;;;26.83;49.88
79138;BME280;68544;45.566;10.238;2023-08-12T06:52:27;100333.56;;;27.43;48.89
79138;BME280;68544;45.566;10.238;2023-08-12T06:54:53;100343.44;;;27.59;48.65
79138;BME280;68544;45.566;10.238;2023-08-12T06:57:18;100339.75;;;27.64;48.00
79138;BME280;68544;45.566;10.238;2023-08-12T06:59:44;100337.59;;;27.61;48.19
79138;BME280;68544;45.566;10.238;2023-08-12T07:02:09;100343.81;;;27.48;48.51
79138;BME280;68544;45.566;10.238;2023-08-12T07:04:34;100338.53;;;28.32;46.67
79138;BME280;68544;45.566;10.238;2023-08-12T07:07:00;100334.38;;;28.53;45.60
79138;BME280;68544;45.566;10.238;2023-08-12T07:09:25;100332.19;;;28.92;45.19
79138;BME280;68544;45.566;10.238;2023-08-12T07:11:51;100328.84;;;28.53;46.13
79138;BME280;68544;45.566;10.238;2023-08-12T07:14:16;100327.84;;;28.86;45.46
79138;BME280;68544;45.566;10.238;2023-08-12T07:16:41;100327.75;;;29.47;43.97
79138;BME280;68544;45.566;10.238;2023-08-12T07:19:07;100330.09;;;29.73;42.97
79138;BME280;68544;45.566;10.238;2023-08-12T07:21:32;100337.00;;;30.07;42.77
79138;BME280;68544;45.566;10.238;2023-08-12T07:23:57;100336.41;;;30.24;42.06
79138;BME280;68544;45.566;10.238;2023-08-12T07:26:23;100332.94;;;30.46;41.44
79138;BME280;68544;45.566;10.238;2023-08-12T07:28:48;100336.75;;;30.50;41.36
79138;BME280;68544;45.566;10.238;2023-08-12T07:31:14;100340.75;;;30.57;41.28
79138;BME280;68544;45.566;10.238;2023-08-12T07:33:39;100328.31;;;31.04;40.24
79138;BME280;68544;45.566;10.238;2023-08-12T07:36:05;100325.19;;;31.41;39.28
79138;BME280;68544;45.566;10.238;2023-08-12T07:38:30;100327.41;;;30.81;40.66
79138;BME280;68544;45.566;10.238;2023-08-12T07:40:56;100325.88;;;31.47;38.91
79138;BME280;68544;45.566;10.238;2023-08-12T07:43:22;100327.97;;;32.55;35.50
79138;BME280;68544;45.566;10.238;2023-08-12T07:45:52;100322.09;;;32.83;34.50
79138;BME280;68544;45.566;10.238;2023-08-12T07:48:18;100320.94;;;33.86;32.52
79138;BME280;68544;45.566;10.238;2023-08-12T07:50:43;100312.63;;;36.22;28.71
79138;BME280;68544;45.566;10.238;2023-08-12T07:53:09;100306.53;;;38.50;24.84
79138;BME280;68544;45.566;10.238;2023-08-12T07:55:35;100304.41;;;40.12;22.37
79138;BME280;68544;45.566;10.238;2023-08-12T07:58:00;100290.25;;;41.46;20.77
79138;BME280;68544;45.566;10.238;2023-08-12T08:00:26;100300.25;;;40.06;21.45
79138;BME280;68544;45.566;10.238;2023-08-12T08:02:51;100298.06;;;41.90;19.96
79138;BME280;68544;45.566;10.238;2023-08-12T08:05:16;100296.50;;;42.90;18.91
79138;BME280;68544;45.566;10.238;2023-08-12T08:07:42;100294.53;;;42.47;18.78
79138;BME280;68544;45.566;10.238;2023-08-12T08:10:07;100292.19;;;40.08;21.45
79138;BME280;68544;45.566;10.238;2023-08-12T08:12:33;100294.63;;;41.74;20.07
79138;BME280;68544;45.566;10.238;2023-08-12T08:14:58;100293.63;;;43.73;17.71
79138;BME280;68544;45.566;10.238;2023-08-12T08:17:24;100284.25;;;43.76;17.72
79138;BME280;68544;45.566;10.238;2023-08-12T08:19:49;100292.19;;;37.65;24.82
79138;BME280;68544;45.566;10.238;2023-08-12T08:22:15;100288.25;;;35.69;27.88
79138;BME280;68544;45.566;10.238;2023-08-12T08:24:40;100291.00;;;36.98;25.50
79138;BME280;68544;45.566;10.238;2023-08-12T08:27:05;100286.84;;;37.75;24.65
79138;BME280;68544;45.566;10.238;2023-08-12T08:29:31;100288.94;;;38.56;23.24
79138;BME280;68544;45.566;10.238;2023-08-12T08:31:56;100282.31;;;38.02;24.44
79138;BME280;68544;45.566;10.238;2023-08-12T08:34:21;100290.00;;;37.74;25.49
79138;BME280;68544;45.566;10.238;2023-08-12T08:36:47;100283.94;;;38.65;23.83
79138;BME280;68544;45.566;10.238;2023-08-12T08:39:12;100283.00;;;39.50;22.28
79138;BME280;68544;45.566;10.238;2023-08-12T08:41:39;100277.78;;;40.16;21.27
79138;BME280;68544;45.566;10.238;2023-08-12T08:44:07;100283.44;;;40.16;21.28
79138;BME280;68544;45.566;10.238;2023-08-12T08:46:33;100276.59;;;42.97;18.32
79138;BME280;68544;45.566;10.238;2023-08-12T08:48:59;100275.44;;;45.59;15.84
79138;BME280;68544;45.566;10.238;2023-08-12T08:51:31;100271.59;;;47.16;13.85
79138;BME280;68544;45.566;10.238;2023-08-12T08:53:57;100261.84;;;46.36;14.67
79138;BME280;68544;45.566;10.238;2023-08-12T08:56:23;100268.47;;;47.68;13.72
79138;BME280;68544;45.566;10.238;2023-08-12T08:58:49;100257.53;;;49.01;12.58
79138;BME280;68544;45.566;10.238;2023-08-12T09:01:18;100263.69;;;48.61;12.59
79138;BME280;68544;45.566;10.238;2023-08-12T09:03:45;100249.63;;;49.45;11.98
79138;BME280;68544;45.566;10.238;2023-08-12T09:06:12;100259.25;;;48.56;12.66
79138;BME280;68544;45.566;10.238;2023-08-12T09:08:41;100259.75;;;47.18;13.81
79138;BME280;68544;45.566;10.238;2023-08-12T09:11:12;100251.34;;;49.42;11.72
79138;BME280;68544;45.566;10.238;2023-08-12T09:13:38;100262.13;;;50.38;11.06
79138;BME280;68544;45.566;10.238;2023-08-12T09:16:04;100247.84;;;51.62;10.30
79138;BME280;68544;45.566;10.238;2023-08-12T09:18:29;100248.25;;;50.66;10.47
79138;BME280;68544;45.566;10.238;2023-08-12T09:20:55;100240.47;;;50.34;11.25
79138;BME280;68544;45.566;10.238;2023-08-12T09:23:20;100239.69;;;51.07;10.76
79138;BME280;68544;45.566;10.238;2023-08-12T09:25:46;100249.53;;;52.69;9.24
79138;BME280;68544;45.566;10.238;2023-08-12T09:28:12;100238.16;;;53.62;8.69
79138;BME280;68544;45.566;10.238;2023-08-12T09:30:38;100247.31;;;51.13;10.10
79138;BME280;68544;45.566;10.238;2023-08-12T09:33:06;100238.72;;;53.47;8.54
79138;BME280;68544;45.566;10.238;2023-08-12T09:35:37;100229.84;;;53.11;8.72
79138;BME280;68544;45.566;10.238;2023-08-12T09:38:05;100234.19;;;52.38;9.35
79138;BME280;68544;45.566;10.238;2023-08-12T09:40:34;100238.72;;;50.69;10.68
79138;BME280;68544;45.566;10.238;2023-08-12T09:43:00;100238.97;;;52.07;10.07
79138;BME280;68544;45.566;10.238;2023-08-12T09:45:27;100232.28;;;52.57;9.43
79138;BME280;68544;45.566;10.238;2023-08-12T09:47:54;100231.28;;;51.91;10.14
79138;BME280;68544;45.566;10.238;2023-08-12T09:50:23;100237.81;;;51.79;10.28
79138;BME280;68544;45.566;10.238;2023-08-12T09:52:51;100233.22;;;55.38;7.44
79138;BME280;68544;45.566;10.238;2023-08-12T09:55:18;100239.63;;;55.84;7.38
79138;BME280;68544;45.566;10.238;2023-08-12T09:57:47;100234.31;;;56.38;6.78
79138;BME280;68544;45.566;10.238;2023-08-12T10:00:13;100230.38;;;55.02;7.59
79138;BME280;68544;45.566;10.238;2023-08-12T10:02:46;100227.97;;;56.64;6.73
79138;BME280;68544;45.566;10.238;2023-08-12T10:05:32;100229.00;;;56.61;7.01
79138;BME280;68544;45.566;10.238;2023-08-12T10:07:58;100211.97;;;55.41;7.59
79138;BME280;68544;45.566;10.238;2023-08-12T10:10:24;100220.75;;;54.50;8.11
79138;BME280;68544;45.566;10.238;2023-08-12T10:12:50;100220.78;;;55.79;7.34
79138;BME280;68544;45.566;10.238;2023-08-12T10:15:16;100223.94;;;54.61;7.94
79138;BME280;68544;45.566;10.238;2023-08-12T10:17:41;100216.34;;;52.65;8.96
79138;BME280;68544;45.566;10.238;2023-08-12T10:20:08;100211.94;;;53.87;8.66
79138;BME280;68544;45.566;10.238;2023-08-12T10:22:39;100216.00;;;55.76;6.95
79138;BME280;68544;45.566;10.238;2023-08-12T10:25:07;100213.56;;;55.42;7.92
79138;BME280;68544;45.566;10.238;2023-08-12T10:27:33;100206.34;;;53.53;8.75
79138;BME280;68544;45.566;10.238;2023-08-12T10:29:59;100215.13;;;51.69;10.04
79138;BME280;68544;45.566;10.238;2023-08-12T10:32:28;100207.66;;;55.93;7.19
79138;BME280;68544;45.566;10.238;2023-08-12T10:34:55;100206.34;;;56.26;7.14
79138;BME280;68544;45.566;10.238;2023-08-12T10:37:23;100195.56;;;56.80;6.33
79138;BME280;68544;45.566;10.238;2023-08-12T10:39:49;100192.81;;;57.15;6.40
79138;BME280;68544;45.566;10.238;2023-08-12T10:42:44;100187.97;;;57.55;6.45
79138;BME280;68544;45.566;10.238;2023-08-12T10:45:18;100177.66;;;57.25;6.41
79138;BME280;68544;45.566;10.238;2023-08-12T10:50:25;100173.00;;;53.70;8.66
79138;BME280;68544;45.566;10.238;2023-08-12T10:52:53;100175.41;;;55.76;7.30
79138;BME280;68544;45.566;10.238;2023-08-12T10:55:23;100173.47;;;56.44;6.81
79138;BME280;68544;45.566;10.238;2023-08-12T10:57:50;100173.19;;;55.20;8.08
79138;BME280;68544;45.566;10.238;2023-08-12T11:00:18;100171.78;;;52.66;9.52
79138;BME280;68544;45.566;10.238;2023-08-12T11:02:44;100171.47;;;53.16;9.20
79138;BME280;68544;45.566;10.238;2023-08-12T11:05:12;100167.66;;;50.08;11.63
79138;BME280;68544;45.566;10.238;2023-08-12T11:07:42;100176.31;;;45.67;15.40
79138;BME280;68544;45.566;10.238;2023-08-12T11:10:13;100172.56;;;45.73;15.52
79138;BME280;68544;45.566;10.238;2023-08-12T11:12:42;100178.72;;;45.03;16.48
79138;BME280;68544;45.566;10.238;2023-08-12T11:15:10;100167.69;;;45.12;16.48
79138;BME280;68544;45.566;10.238;2023-08-12T11:17:40;100162.16;;;43.07;18.04
79138;BME280;68544;45.566;10.238;2023-08-12T11:20:08;100151.31;;;43.73;17.74
79138;BME280;68544;45.566;10.238;2023-08-12T11:22:40;100165.31;;;42.20;19.45
79138;BME280;68544;45.566;10.238;2023-08-12T11:25:10;100165.75;;;41.71;20.27
79138;BME280;68544;45.566;10.238;2023-08-12T11:27:43;100155.47;;;41.59;19.94
79138;BME280;68544;45.566;10.238;2023-08-12T11:30:10;100159.53;;;41.58;20.42
79138;BME280;68544;45.566;10.238;2023-08-12T11:32:37;100156.63;;;40.26;21.89
79138;BME280;68544;45.566;10.238;2023-08-12T11:35:05;100161.13;;;40.00;22.44
79138;BME280;68544;45.566;10.238;2023-08-12T11:37:31;100159.66;;;39.87;22.25
79138;BME280;68544;45.566;10.238;2023-08-12T11:39:57;100152.06;;;38.66;24.06
79138;BME280;68544;45.566;10.238;2023-08-12T11:42:23;100149.91;;;38.79;23.51
79138;BME280;68544;45.566;10.238;2023-08-12T11:44:48;100143.88;;;39.86;22.13
79138;BME280;68544;45.566;10.238;2023-08-12T11:47:14;100137.78;;;38.97;24.07
79138;BME280;68544;45.566;10.238;2023-08-12T11:49:39;100150.38;;;38.11;24.96
79138;BME280;68544;45.566;10.238;2023-08-12T11:52:05;100137.53;;;38.29;25.24
79138;BME280;68544;45.566;10.238;2023-08-12T11:54:31;100134.69;;;38.14;25.39
79138;BME280;68544;45.566;10.238;2023-08-12T11:56:58;100126.25;;;38.48;25.17
79138;BME280;68544;45.566;10.238;2023-08-12T11:59:24;100133.00;;;37.78;26.20
79138;BME280;68544;45.566;10.238;2023-08-12T12:01:51;100125.13;;;37.68;26.42
79138;BME280;68544;45.566;10.238;2023-08-12T12:04:17;100119.56;;;38.56;24.24
79138;BME280;68544;45.566;10.238;2023-08-12T12:06:46;100122.25;;;37.05;26.39
79138;BME280;68544;45.566;10.238;2023-08-12T12:09:12;100128.00;;;38.03;25.48
79138;BME280;68544;45.566;10.238;2023-08-12T12:11:40;100122.78;;;36.83;27.05
79138;BME280;68544;45.566;10.238;2023-08-12T12:14:07;100120.47;;;37.29;26.80
79138;BME280;68544;45.566;10.238;2023-08-12T12:16:42;100114.41;;;37.73;26.53
79138;BME280;68544;45.566;10.238;2023-08-12T12:19:19;100118.59;;;37.48;26.44
79138;BME280;68544;45.566;10.238;2023-08-12T12:21:49;100109.84;;;36.67;27.21
79138;BME280;68544;45.566;10.238;2023-08-12T12:24:16;100112.63;;;36.39;27.88
79138;BME280;68544;45.566;10.238;2023-08-12T12:26:43;100115.28;;;36.20;28.58
79138;BME280;68544;45.566;10.238;2023-08-12T12:29:09;100122.19;;;36.62;28.51
79138;BME280;68544;45.566;10.238;2023-08-12T12:31:37;100110.22;;;36.93;27.11
79138;BME280;68544;45.566;10.238;2023-08-12T12:34:03;100125.72;;;36.87;27.31
79138;BME280;68544;45.566;10.238;2023-08-12T12:36:30;100117.13;;;36.16;27.74
79138;BME280;68544;45.566;10.238;2023-08-12T12:38:56;100112.56;;;36.63;27.28